Historyczne dane pomiarowe

Dodano dane terminowe – wersja testowa.

Dane z okresu 1951-2019

Wersja bazy: 1.34 [2019-03-16, lista zmian], aktualizacja planowana na 2019-04-15

Dane meteo z obszaru Polski uzyskane na podstawie danych udostępnionych przez Instytut Meteorologii i Gospodarki Wodnej – Państwowy Instytut Badawczy.

 

Wybierz Datę:    

       

TemperaturaWilgotnośćZachmurzenieWiatrCiśnienieWidzialnośćZjawiska
 Data    tng td wb rh cc ccl cl cm ch dir g1 g2 mslp ppp      
1999-06-27 00:00:00 9.6--- 8.8 9.295wxwx1wx--1018.6 996.0 0.0---wx
1999-06-27 01:00:00 8.8--- 8.0 8.495wxwx0wx--1018.8 996.1----wx
1999-06-27 02:00:00 8.6--- 8.0 8.396wxwx1wx--1018.8 996.1----wx
1999-06-27 03:00:00 8.0--- 7.4 7.796wxwx0wx--1018.8 996.1----wx
1999-06-27 04:00:00 11.1--- 10.2 10.694wxwx0wx--1018.6 996.1----wx
1999-06-27 05:00:00 15.0--- 13.3 14.090wxwx0wx--1018.5 996.3----wx
1999-06-27 06:00:00 17.9--- 12.7 14.872wxwx2wx--1018.5 996.6 0.0---wx
1999-06-27 07:00:00 19.4--- 11.6 14.861wxwx2wx--1018.5 996.7----wx
1999-06-27 08:00:00 20.6--- 11.5 15.256wxwx2wx--1018.4 996.7----wx
1999-06-27 09:00:00 22.0--- 12.8 16.456wxwx2wx--1018.3 996.7----wx
1999-06-27 10:00:00 22.6--- 13.1 16.855wxwxwx2wx--1018.3 996.7----wx
1999-06-27 11:00:00 23.0--- 12.9 16.853wxwxwx2wx--1018.3 996.7----wx
1999-06-27 12:00:00 23.6--- 12.8 17.051wxwxwx2wx--1018.0 996.5 0.0---wx
1999-06-27 13:00:00 24.2--- 13.2 17.450wxwx2wx--1017.7 996.2----wx
1999-06-27 14:00:00 24.2--- 13.2 17.450wxwx2wx--1017.2 995.7----wx
1999-06-27 15:00:00 24.2--- 12.8 17.249wxwx2wx--1016.6 995.2----wx
1999-06-27 16:00:00 23.6--- 12.8 17.051wxwx2wx--1016.3 994.8----wx
1999-06-27 17:00:00 23.2--- 12.7 16.852wxwx2wx--1016.0 994.5----wx
1999-06-27 18:00:00 21.4--- 14.3 17.064wxwx2wx--1016.2 994.6 0.0---wx
1999-06-27 19:00:00 19.0--- 13.8 15.872wxwxwx2wx--1016.6 994.8----wx
1999-06-27 20:00:00 16.0--- 13.3 14.484wxwxwx3wx--1017.2 995.1----wx
1999-06-27 21:00:00 14.4--- 13.0 13.692wxwx0wx--1017.4 995.2----wx
1999-06-27 22:00:00 12.0--- 10.6 11.291wxwx0wx--1017.6 995.2----wx
1999-06-27 23:00:00 11.2--- 10.1 10.693wxwx0wx--1017.4 995.0----wx

 

Źródłem pochodzenia danych jest Instytut Meteorologii i Gospodarki Wodnej – Państwowy Instytut Badawczy. Dane Instytutu Meteorologii i Gospodarki Wodnej – Państwowego Instytutu Badawczego zostały przetworzone.

Dane źródłowe można odnaleźć na stronie https://dane.imgw.pl